sensor_id;sensor_type;location;lat;lon;timestamp;temperature;humidity
78490;DHT22;67776;52.012;4.736;2023-04-25T00:01:13;6.52;81.78
78490;DHT22;67776;52.012;4.736;2023-04-25T00:03:39;6.52;83.96
78490;DHT22;67776;52.012;4.736;2023-04-25T00:06:05;6.52;81.71
78490;DHT22;67776;52.012;4.736;2023-04-25T00:08:31;6.47;82.02
78490;DHT22;67776;52.012;4.736;2023-04-25T00:10:57;6.45;82.99
78490;DHT22;67776;52.012;4.736;2023-04-25T00:13:23;6.43;82.69
78490;DHT22;67776;52.012;4.736;2023-04-25T00:15:50;6.36;82.30
78490;DHT22;67776;52.012;4.736;2023-04-25T00:18:16;6.30;82.96
78490;DHT22;67776;52.012;4.736;2023-04-25T00:20:43;6.29;82.49
78490;DHT22;67776;52.012;4.736;2023-04-25T00:23:12;6.26;82.17
78490;DHT22;67776;52.012;4.736;2023-04-25T00:25:37;6.26;82.64
78490;DHT22;67776;52.012;4.736;2023-04-25T00:28:03;6.22;83.33
78490;DHT22;67776;52.012;4.736;2023-04-25T00:30:28;6.12;83.11
78490;DHT22;67776;52.012;4.736;2023-04-25T00:32:53;6.12;82.66
78490;DHT22;67776;52.012;4.736;2023-04-25T00:35:19;6.12;83.39
78490;DHT22;67776;52.012;4.736;2023-04-25T00:37:44;6.14;83.07
78490;DHT22;67776;52.012;4.736;2023-04-25T00:40:10;6.07;82.35
78490;DHT22;67776;52.012;4.736;2023-04-25T00:42:36;6.01;82.78
78490;DHT22;67776;52.012;4.736;2023-04-25T00:45:04;6.01;82.69
78490;DHT22;67776;52.012;4.736;2023-04-25T00:47:30;6.00;82.96
78490;DHT22;67776;52.012;4.736;2023-04-25T00:49:56;5.95;83.37
78490;DHT22;67776;52.012;4.736;2023-04-25T00:52:22;5.95;83.97
78490;DHT22;67776;52.012;4.736;2023-04-25T00:54:47;5.97;83.15
78490;DHT22;67776;52.012;4.736;2023-04-25T00:57:13;5.98;82.84
78490;DHT22;67776;52.012;4.736;2023-04-25T00:59:38;6.01;83.12
78490;DHT22;67776;52.012;4.736;2023-04-25T01:02:08;6.05;82.82
78490;DHT22;67776;52.012;4.736;2023-04-25T01:04:34;6.09;82.93
78490;DHT22;67776;52.012;4.736;2023-04-25T01:06:59;6.15;82.89
78490;DHT22;67776;52.012;4.736;2023-04-25T01:09:25;6.19;82.79
78490;DHT22;67776;52.012;4.736;2023-04-25T01:11:50;6.25;82.15
78490;DHT22;67776;52.012;4.736;2023-04-25T01:14:16;6.25;81.43
78490;DHT22;67776;52.012;4.736;2023-04-25T01:16:42;6.25;81.55
78490;DHT22;67776;52.012;4.736;2023-04-25T01:19:10;6.24;81.68
78490;DHT22;67776;52.012;4.736;2023-04-25T01:21:38;6.26;82.50
78490;DHT22;67776;52.012;4.736;2023-04-25T01:24:04;6.17;80.83
78490;DHT22;67776;52.012;4.736;2023-04-25T01:26:30;6.11;81.65
78490;DHT22;67776;52.012;4.736;2023-04-25T01:28:56;6.05;83.32
78490;DHT22;67776;52.012;4.736;2023-04-25T01:31:22;6.00;81.82
78490;DHT22;67776;52.012;4.736;2023-04-25T01:33:48;5.98;82.79
78490;DHT22;67776;52.012;4.736;2023-04-25T01:36:14;5.93;82.01
78490;DHT22;67776;52.012;4.736;2023-04-25T01:38:40;5.90;82.38
78490;DHT22;67776;52.012;4.736;2023-04-25T01:41:05;5.87;82.45
78490;DHT22;67776;52.012;4.736;2023-04-25T01:43:31;5.84;82.65
78490;DHT22;67776;52.012;4.736;2023-04-25T01:45:57;5.78;82.69
78490;DHT22;67776;52.012;4.736;2023-04-25T01:48:22;5.73;82.90
78490;DHT22;67776;52.012;4.736;2023-04-25T01:50:47;5.70;82.93
78490;DHT22;67776;52.012;4.736;2023-04-25T01:53:13;5.69;82.74
78490;DHT22;67776;52.012;4.736;2023-04-25T01:55:39;5.67;83.03
78490;DHT22;67776;52.012;4.736;2023-04-25T01:58:05;5.71;83.06
78490;DHT22;67776;52.012;4.736;2023-04-25T02:00:38;5.64;82.81
78490;DHT22;67776;52.012;4.736;2023-04-25T02:03:04;5.64;82.64
78490;DHT22;67776;52.012;4.736;2023-04-25T02:05:35;5.63;82.74
78490;DHT22;67776;52.012;4.736;2023-04-25T02:08:01;5.63;82.46
78490;DHT22;67776;52.012;4.736;2023-04-25T02:10:26;5.66;82.03
78490;DHT22;67776;52.012;4.736;2023-04-25T02:12:51;5.64;81.76
78490;DHT22;67776;52.012;4.736;2023-04-25T02:15:17;5.69;81.26
78490;DHT22;67776;52.012;4.736;2023-04-25T02:17:42;5.74;81.43
78490;DHT22;67776;52.012;4.736;2023-04-25T02:20:08;5.77;81.40
78490;DHT22;67776;52.012;4.736;2023-04-25T02:22:33;5.84;81.17
78490;DHT22;67776;52.012;4.736;2023-04-25T02:25:00;5.87;80.78
78490;DHT22;67776;52.012;4.736;2023-04-25T02:27:25;5.90;81.45
78490;DHT22;67776;52.012;4.736;2023-04-25T02:29:51;5.94;81.71
78490;DHT22;67776;52.012;4.736;2023-04-25T02:32:17;5.98;81.24
78490;DHT22;67776;52.012;4.736;2023-04-25T02:34:42;6.01;80.81
78490;DHT22;67776;52.012;4.736;2023-04-25T02:37:07;6.08;80.09
78490;DHT22;67776;52.012;4.736;2023-04-25T02:39:33;6.15;79.74
78490;DHT22;67776;52.012;4.736;2023-04-25T02:41:58;6.17;81.13
78490;DHT22;67776;52.012;4.736;2023-04-25T02:44:23;6.19;80.48
78490;DHT22;67776;52.012;4.736;2023-04-25T02:46:48;6.25;78.95
78490;DHT22;67776;52.012;4.736;2023-04-25T02:49:14;6.24;78.40
78490;DHT22;67776;52.012;4.736;2023-04-25T02:51:39;6.29;79.36
78490;DHT22;67776;52.012;4.736;2023-04-25T02:54:05;6.32;78.40
78490;DHT22;67776;52.012;4.736;2023-04-25T02:56:31;6.35;76.89
78490;DHT22;67776;52.012;4.736;2023-04-25T02:58:56;6.39;78.66
78490;DHT22;67776;52.012;4.736;2023-04-25T03:01:22;6.35;79.04
78490;DHT22;67776;52.012;4.736;2023-04-25T03:03:47;6.39;78.03
78490;DHT22;67776;52.012;4.736;2023-04-25T03:06:13;6.36;79.52
78490;DHT22;67776;52.012;4.736;2023-04-25T03:08:38;6.36;79.36
78490;DHT22;67776;52.012;4.736;2023-04-25T03:11:04;6.36;77.24
78490;DHT22;67776;52.012;4.736;2023-04-25T03:13:29;6.36;77.26
78490;DHT22;67776;52.012;4.736;2023-04-25T03:15:58;6.33;79.00
78490;DHT22;67776;52.012;4.736;2023-04-25T03:18:23;6.36;77.22
78490;DHT22;67776;52.012;4.736;2023-04-25T03:20:49;6.39;79.65
78490;DHT22;67776;52.012;4.736;2023-04-25T03:23:14;6.36;77.95
78490;DHT22;67776;52.012;4.736;2023-04-25T03:25:39;6.36;78.18
78490;DHT22;67776;52.012;4.736;2023-04-25T03:28:05;6.36;77.43
78490;DHT22;67776;52.012;4.736;2023-04-25T03:30:31;6.39;77.75
78490;DHT22;67776;52.012;4.736;2023-04-25T03:32:59;6.42;78.99
78490;DHT22;67776;52.012;4.736;2023-04-25T03:35:24;6.39;79.17
78490;DHT22;67776;52.012;4.736;2023-04-25T03:37:50;6.39;79.75
78490;DHT22;67776;52.012;4.736;2023-04-25T03:40:15;6.36;81.46
78490;DHT22;67776;52.012;4.736;2023-04-25T03:42:40;6.35;81.00
78490;DHT22;67776;52.012;4.736;2023-04-25T03:45:07;6.36;80.73
78490;DHT22;67776;52.012;4.736;2023-04-25T03:47:32;6.37;79.97
78490;DHT22;67776;52.012;4.736;2023-04-25T03:49:57;6.36;80.86
78490;DHT22;67776;52.012;4.736;2023-04-25T03:52:23;6.40;80.55
78490;DHT22;67776;52.012;4.736;2023-04-25T03:54:48;6.42;79.56
78490;DHT22;67776;52.012;4.736;2023-04-25T03:57:13;6.42;80.99
78490;DHT22;67776;52.012;4.736;2023-04-25T03:59:39;6.40;80.92
78490;DHT22;67776;52.012;4.736;2023-04-25T04:02:04;6.43;80.37
78490;DHT22;67776;52.012;4.736;2023-04-25T04:04:30;6.35;81.28
78490;DHT22;67776;52.012;4.736;2023-04-25T04:06:55;6.28;80.99
78490;DHT22;67776;52.012;4.736;2023-04-25T04:09:20;6.26;78.85
78490;DHT22;67776;52.012;4.736;2023-04-25T04:11:46;6.28;80.01
78490;DHT22;67776;52.012;4.736;2023-04-25T04:14:11;6.35;78.63
78490;DHT22;67776;52.012;4.736;2023-04-25T04:16:36;6.36;80.15
78490;DHT22;67776;52.012;4.736;2023-04-25T04:19:02;6.32;79.82
78490;DHT22;67776;52.012;4.736;2023-04-25T04:21:28;6.32;80.53
78490;DHT22;67776;52.012;4.736;2023-04-25T04:23:53;6.33;79.56
78490;DHT22;67776;52.012;4.736;2023-04-25T04:26:19;6.35;79.98
78490;DHT22;67776;52.012;4.736;2023-04-25T04:28:48;6.40;79.72
78490;DHT22;67776;52.012;4.736;2023-04-25T04:31:15;6.32;79.77
78490;DHT22;67776;52.012;4.736;2023-04-25T04:33:40;6.30;81.12
78490;DHT22;67776;52.012;4.736;2023-04-25T04:36:06;6.32;79.64
78490;DHT22;67776;52.012;4.736;2023-04-25T04:38:32;6.35;80.20
78490;DHT22;67776;52.012;4.736;2023-04-25T04:40:58;6.39;79.17
78490;DHT22;67776;52.012;4.736;2023-04-25T04:43:23;6.36;79.08
78490;DHT22;67776;52.012;4.736;2023-04-25T04:45:49;6.40;78.40
78490;DHT22;67776;52.012;4.736;2023-04-25T04:48:15;6.28;79.10
78490;DHT22;67776;52.012;4.736;2023-04-25T04:50:43;6.08;78.49
78490;DHT22;67776;52.012;4.736;2023-04-25T04:53:10;6.07;79.76
78490;DHT22;67776;52.012;4.736;2023-04-25T04:55:35;6.07;78.00
78490;DHT22;67776;52.012;4.736;2023-04-25T04:58:01;6.01;79.55
78490;DHT22;67776;52.012;4.736;2023-04-25T05:00:26;6.08;78.27
78490;DHT22;67776;52.012;4.736;2023-04-25T05:02:52;6.12;79.74
78490;DHT22;67776;52.012;4.736;2023-04-25T05:05:17;6.11;78.19
78490;DHT22;67776;52.012;4.736;2023-04-25T05:07:42;6.14;78.55
78490;DHT22;67776;52.012;4.736;2023-04-25T05:10:08;6.17;78.63
78490;DHT22;67776;52.012;4.736;2023-04-25T05:12:33;6.19;80.54
78490;DHT22;67776;52.012;4.736;2023-04-25T05:14:59;6.19;79.42
78490;DHT22;67776;52.012;4.736;2023-04-25T05:17:25;6.19;80.47
78490;DHT22;67776;52.012;4.736;2023-04-25T05:19:50;6.17;80.27
78490;DHT22;67776;52.012;4.736;2023-04-25T05:22:16;6.25;78.28
78490;DHT22;67776;52.012;4.736;2023-04-25T05:24:41;6.24;79.55
78490;DHT22;67776;52.012;4.736;2023-04-25T05:27:06;6.18;80.15
78490;DHT22;67776;52.012;4.736;2023-04-25T05:29:32;6.19;80.67
78490;DHT22;67776;52.012;4.736;2023-04-25T05:31:57;6.17;79.97
78490;DHT22;67776;52.012;4.736;2023-04-25T05:34:22;6.14;80.45
78490;DHT22;67776;52.012;4.736;2023-04-25T05:36:47;6.18;79.93
78490;DHT22;67776;52.012;4.736;2023-04-25T05:39:15;6.25;79.88
78490;DHT22;67776;52.012;4.736;2023-04-25T05:41:41;6.33;78.86
78490;DHT22;67776;52.012;4.736;2023-04-25T05:44:07;6.35;78.52
78490;DHT22;67776;52.012;4.736;2023-04-25T05:46:32;6.33;79.49
78490;DHT22;67776;52.012;4.736;2023-04-25T05:48:58;6.33;78.76
78490;DHT22;67776;52.012;4.736;2023-04-25T05:51:23;6.30;80.29
78490;DHT22;67776;52.012;4.736;2023-04-25T05:53:48;6.25;79.39
78490;DHT22;67776;52.012;4.736;2023-04-25T05:56:14;6.29;80.37
78490;DHT22;67776;52.012;4.736;2023-04-25T05:58:39;6.11;80.44
78490;DHT22;67776;52.012;4.736;2023-04-25T06:01:05;6.05;82.65
78490;DHT22;67776;52.012;4.736;2023-04-25T06:03:30;6.04;82.24
78490;DHT22;67776;52.012;4.736;2023-04-25T06:05:55;6.02;82.64
78490;DHT22;67776;52.012;4.736;2023-04-25T06:08:21;5.98;83.87
78490;DHT22;67776;52.012;4.736;2023-04-25T06:10:46;6.00;82.31
78490;DHT22;67776;52.012;4.736;2023-04-25T06:13:12;6.02;81.77
78490;DHT22;67776;52.012;4.736;2023-04-25T06:15:37;6.02;82.51
78490;DHT22;67776;52.012;4.736;2023-04-25T06:18:02;6.05;83.02
78490;DHT22;67776;52.012;4.736;2023-04-25T06:20:28;6.11;80.96
78490;DHT22;67776;52.012;4.736;2023-04-25T06:22:53;6.11;81.61
78490;DHT22;67776;52.012;4.736;2023-04-25T06:25:19;5.97;84.03
78490;DHT22;67776;52.012;4.736;2023-04-25T06:27:46;6.00;84.37
78490;DHT22;67776;52.012;4.736;2023-04-25T06:30:11;5.90;83.98
78490;DHT22;67776;52.012;4.736;2023-04-25T06:32:37;5.81;83.91
78490;DHT22;67776;52.012;4.736;2023-04-25T06:35:03;5.78;85.94
78490;DHT22;67776;52.012;4.736;2023-04-25T06:37:29;5.59;86.45
78490;DHT22;67776;52.012;4.736;2023-04-25T06:39:54;5.52;84.46
78490;DHT22;67776;52.012;4.736;2023-04-25T06:42:19;5.59;85.49
78490;DHT22;67776;52.012;4.736;2023-04-25T06:44:45;5.62;87.22
78490;DHT22;67776;52.012;4.736;2023-04-25T06:47:10;5.83;87.33
78490;DHT22;67776;52.012;4.736;2023-04-25T06:49:35;5.80;84.70
78490;DHT22;67776;52.012;4.736;2023-04-25T06:52:01;5.91;85.47
78490;DHT22;67776;52.012;4.736;2023-04-25T06:54:26;6.11;86.13
78490;DHT22;67776;52.012;4.736;2023-04-25T06:56:54;6.17;84.45
78490;DHT22;67776;52.012;4.736;2023-04-25T06:59:20;6.22;84.43
78490;DHT22;67776;52.012;4.736;2023-04-25T07:01:45;6.33;84.99
78490;DHT22;67776;52.012;4.736;2023-04-25T07:04:10;6.37;84.86
78490;DHT22;67776;52.012;4.736;2023-04-25T07:06:36;6.64;84.85
78490;DHT22;67776;52.012;4.736;2023-04-25T07:09:07;6.67;82.66
78490;DHT22;67776;52.012;4.736;2023-04-25T07:11:33;6.74;83.27
78490;DHT22;67776;52.012;4.736;2023-04-25T07:13:59;6.95;82.99
78490;DHT22;67776;52.012;4.736;2023-04-25T07:16:24;7.07;82.37
78490;DHT22;67776;52.012;4.736;2023-04-25T07:18:50;7.25;81.17
78490;DHT22;67776;52.012;4.736;2023-04-25T07:21:15;7.30;79.38
78490;DHT22;67776;52.012;4.736;2023-04-25T07:23:40;7.28;80.64
78490;DHT22;67776;52.012;4.736;2023-04-25T07:26:06;7.12;81.44
78490;DHT22;67776;52.012;4.736;2023-04-25T07:28:31;7.23;79.20
78490;DHT22;67776;52.012;4.736;2023-04-25T07:30:57;7.32;81.02
78490;DHT22;67776;52.012;4.736;2023-04-25T07:33:23;7.42;80.61
78490;DHT22;67776;52.012;4.736;2023-04-25T07:35:48;7.55;79.21
78490;DHT22;67776;52.012;4.736;2023-04-25T07:38:13;7.80;78.49
78490;DHT22;67776;52.012;4.736;2023-04-25T07:40:39;7.90;79.22
78490;DHT22;67776;52.012;4.736;2023-04-25T07:43:04;7.99;79.40
78490;DHT22;67776;52.012;4.736;2023-04-25T07:45:29;8.02;79.35
78490;DHT22;67776;52.012;4.736;2023-04-25T07:47:55;7.98;77.54
78490;DHT22;67776;52.012;4.736;2023-04-25T07:50:20;8.06;78.70
78490;DHT22;67776;52.012;4.736;2023-04-25T07:52:46;8.16;78.83
78490;DHT22;67776;52.012;4.736;2023-04-25T07:55:11;8.22;77.79
78490;DHT22;67776;52.012;4.736;2023-04-25T07:57:37;8.35;77.38
78490;DHT22;67776;52.012;4.736;2023-04-25T08:00:03;8.50;74.96
78490;DHT22;67776;52.012;4.736;2023-04-25T08:02:30;8.77;75.92
78490;DHT22;67776;52.012;4.736;2023-04-25T08:04:55;9.05;77.50
78490;DHT22;67776;52.012;4.736;2023-04-25T08:07:21;9.23;73.48
78490;DHT22;67776;52.012;4.736;2023-04-25T08:09:46;9.12;71.70
78490;DHT22;67776;52.012;4.736;2023-04-25T08:12:12;8.98;69.41
78490;DHT22;67776;52.012;4.736;2023-04-25T08:14:37;9.07;68.60
78490;DHT22;67776;52.012;4.736;2023-04-25T08:17:07;9.04;70.40
78490;DHT22;67776;52.012;4.736;2023-04-25T08:19:33;8.76;70.02
78490;DHT22;67776;52.012;4.736;2023-04-25T08:21:58;8.57;69.73
78490;DHT22;67776;52.012;4.736;2023-04-25T08:24:23;8.24;71.90
78490;DHT22;67776;52.012;4.736;2023-04-25T08:26:49;8.29;70.39
78490;DHT22;67776;52.012;4.736;2023-04-25T08:29:14;8.54;67.98
78490;DHT22;67776;52.012;4.736;2023-04-25T08:31:40;8.88;67.93
78490;DHT22;67776;52.012;4.736;2023-04-25T08:34:05;9.25;69.05
78490;DHT22;67776;52.012;4.736;2023-04-25T08:36:31;9.26;67.11
78490;DHT22;67776;52.012;4.736;2023-04-25T08:38:56;9.29;65.55
78490;DHT22;67776;52.012;4.736;2023-04-25T08:41:22;9.30;66.51
78490;DHT22;67776;52.012;4.736;2023-04-25T08:43:48;9.22;68.22
78490;DHT22;67776;52.012;4.736;2023-04-25T08:46:17;9.26;65.59
78490;DHT22;67776;52.012;4.736;2023-04-25T08:48:45;9.18;64.28
78490;DHT22;67776;52.012;4.736;2023-04-25T08:51:22;9.11;67.81
78490;DHT22;67776;52.012;4.736;2023-04-25T08:53:51;8.98;63.50
78490;DHT22;67776;52.012;4.736;2023-04-25T08:56:17;8.87;68.91
78490;DHT22;67776;52.012;4.736;2023-04-25T08:58:52;9.66;63.52
78490;DHT22;67776;52.012;4.736;2023-04-25T09:01:18;10.33;61.18
78490;DHT22;67776;52.012;4.736;2023-04-25T09:03:44;10.87;61.49
78490;DHT22;67776;52.012;4.736;2023-04-25T09:06:10;10.98;57.21
78490;DHT22;67776;52.012;4.736;2023-04-25T09:08:39;11.67;59.08
78490;DHT22;67776;52.012;4.736;2023-04-25T09:11:06;11.12;56.79
78490;DHT22;67776;52.012;4.736;2023-04-25T09:13:31;10.39;55.44
78490;DHT22;67776;52.012;4.736;2023-04-25T09:15:57;9.80;59.49
78490;DHT22;67776;52.012;4.736;2023-04-25T09:18:24;10.12;58.50
78490;DHT22;67776;52.012;4.736;2023-04-25T09:21:08;10.74;54.36
78490;DHT22;67776;52.012;4.736;2023-04-25T09:23:47;11.50;57.88
78490;DHT22;67776;52.012;4.736;2023-04-25T09:26:18;11.76;58.30
78490;DHT22;67776;52.012;4.736;2023-04-25T09:28:43;11.32;61.47
78490;DHT22;67776;52.012;4.736;2023-04-25T09:31:11;10.97;64.28
78490;DHT22;67776;52.012;4.736;2023-04-25T09:33:37;11.04;66.58
78490;DHT22;67776;52.012;4.736;2023-04-25T09:36:07;10.87;62.79
78490;DHT22;67776;52.012;4.736;2023-04-25T09:38:41;10.71;65.01
78490;DHT22;67776;52.012;4.736;2023-04-25T09:41:08;10.84;63.04
78490;DHT22;67776;52.012;4.736;2023-04-25T09:43:34;11.19;62.93
78490;DHT22;67776;52.012;4.736;2023-04-25T09:46:00;11.49;64.66
78490;DHT22;67776;52.012;4.736;2023-04-25T09:48:27;11.90;63.29
78490;DHT22;67776;52.012;4.736;2023-04-25T09:51:13;12.17;63.57
78490;DHT22;67776;52.012;4.736;2023-04-25T09:53:46;12.21;60.99
78490;DHT22;67776;52.012;4.736;2023-04-25T09:56:14;12.18;57.99
78490;DHT22;67776;52.012;4.736;2023-04-25T09:58:51;12.40;58.81
78490;DHT22;67776;52.012;4.736;2023-04-25T10:01:19;12.48;55.84
78490;DHT22;67776;52.012;4.736;2023-04-25T10:03:49;12.81;53.07
78490;DHT22;67776;52.012;4.736;2023-04-25T10:06:19;12.66;49.92
78490;DHT22;67776;52.012;4.736;2023-04-25T10:08:50;13.01;54.32
78490;DHT22;67776;52.012;4.736;2023-04-25T10:11:17;13.66;52.72
78490;DHT22;67776;52.012;4.736;2023-04-25T10:13:43;13.84;48.52
78490;DHT22;67776;52.012;4.736;2023-04-25T10:16:09;13.84;53.03
78490;DHT22;67776;52.012;4.736;2023-04-25T10:18:35;13.16;54.38
78490;DHT22;67776;52.012;4.736;2023-04-25T10:21:03;13.48;54.01
78490;DHT22;67776;52.012;4.736;2023-04-25T10:23:30;13.28;51.72
78490;DHT22;67776;52.012;4.736;2023-04-25T10:25:57;13.76;52.31
78490;DHT22;67776;52.012;4.736;2023-04-25T10:28:23;13.86;50.79
78490;DHT22;67776;52.012;4.736;2023-04-25T10:31:02;14.45;51.98
78490;DHT22;67776;52.012;4.736;2023-04-25T10:33:39;15.11;50.95
78490;DHT22;67776;52.012;4.736;2023-04-25T10:36:19;15.24;48.07
78490;DHT22;67776;52.012;4.736;2023-04-25T10:38:48;15.42;49.04
78490;DHT22;67776;52.012;4.736;2023-04-25T10:41:17;15.82;48.40
78490;DHT22;67776;52.012;4.736;2023-04-25T10:43:46;15.60;49.38
78490;DHT22;67776;52.012;4.736;2023-04-25T10:46:30;14.50;50.36
78490;DHT22;67776;52.012;4.736;2023-04-25T10:49:00;14.13;50.26
78490;DHT22;67776;52.012;4.736;2023-04-25T10:54:06;13.05;50.74
78490;DHT22;67776;52.012;4.736;2023-04-25T10:56:36;12.91;54.44
78490;DHT22;67776;52.012;4.736;2023-04-25T10:59:18;12.01;56.95
78490;DHT22;67776;52.012;4.736;2023-04-25T11:01:47;12.15;56.09
78490;DHT22;67776;52.012;4.736;2023-04-25T11:04:21;11.88;59.44
78490;DHT22;67776;52.012;4.736;2023-04-25T11:09:35;12.31;55.02
78490;DHT22;67776;52.012;4.736;2023-04-25T11:12:01;12.75;51.97
78490;DHT22;67776;52.012;4.736;2023-04-25T11:14:27;14.03;48.31
78490;DHT22;67776;52.012;4.736;2023-04-25T11:16:55;14.22;49.75
78490;DHT22;67776;52.012;4.736;2023-04-25T11:19:21;14.39;46.96
78490;DHT22;67776;52.012;4.736;2023-04-25T11:21:46;13.77;47.77
78490;DHT22;67776;52.012;4.736;2023-04-25T11:24:11;12.61;49.51
78490;DHT22;67776;52.012;4.736;2023-04-25T11:26:37;12.48;53.60
78490;DHT22;67776;52.012;4.736;2023-04-25T11:29:02;13.73;48.94
78490;DHT22;67776;52.012;4.736;2023-04-25T11:31:28;14.87;45.10
78490;DHT22;67776;52.012;4.736;2023-04-25T11:33:56;15.27;46.36
78490;DHT22;67776;52.012;4.736;2023-04-25T11:36:23;15.46;44.18
78490;DHT22;67776;52.012;4.736;2023-04-25T11:38:50;15.98;40.44
78490;DHT22;67776;52.012;4.736;2023-04-25T11:41:16;16.38;40.51
78490;DHT22;67776;52.012;4.736;2023-04-25T11:43:45;16.15;40.16
78490;DHT22;67776;52.012;4.736;2023-04-25T11:46:10;15.96;43.68
78490;DHT22;67776;52.012;4.736;2023-04-25T11:48:38;15.60;39.32
78490;DHT22;67776;52.012;4.736;2023-04-25T11:51:04;15.52;45.97
78490;DHT22;67776;52.012;4.736;2023-04-25T11:53:29;16.76;42.96
78490;DHT22;67776;52.012;4.736;2023-04-25T11:55:54;17.34;43.93
78490;DHT22;67776;52.012;4.736;2023-04-25T11:58:22;16.28;45.07
78490;DHT22;67776;52.012;4.736;2023-04-25T12:00:48;15.05;46.26
78490;DHT22;67776;52.012;4.736;2023-04-25T12:03:13;13.91;47.24
78490;DHT22;67776;52.012;4.736;2023-04-25T12:05:38;14.65;46.12
78490;DHT22;67776;52.012;4.736;2023-04-25T12:08:15;16.20;42.54
78490;DHT22;67776;52.012;4.736;2023-04-25T12:10:44;15.98;42.74
78490;DHT22;67776;52.012;4.736;2023-04-25T12:15:44;16.70;40.14
78490;DHT22;67776;52.012;4.736;2023-04-25T12:18:10;16.66;40.60
78490;DHT22;67776;52.012;4.736;2023-04-25T12:20:35;16.93;39.00
78490;DHT22;67776;52.012;4.736;2023-04-25T12:23:05;14.20;41.17
78490;DHT22;67776;52.012;4.736;2023-04-25T12:25:38;15.53;40.07
78490;DHT22;67776;52.012;4.736;2023-04-25T12:28:16;16.00;40.87
78490;DHT22;67776;52.012;4.736;2023-04-25T12:33:18;15.94;41.67
78490;DHT22;67776;52.012;4.736;2023-04-25T12:35:44;17.41;39.35
78490;DHT22;67776;52.012;4.736;2023-04-25T12:38:09;17.90;38.02
78490;DHT22;67776;52.012;4.736;2023-04-25T12:40:34;17.35;40.40
78490;DHT22;67776;52.012;4.736;2023-04-25T12:43:00;15.22;44.45
78490;DHT22;67776;52.012;4.736;2023-04-25T12:45:25;14.08;46.90
78490;DHT22;67776;52.012;4.736;2023-04-25T12:47:50;13.59;47.66
78490;DHT22;67776;52.012;4.736;2023-04-25T12:50:16;13.15;47.12
78490;DHT22;67776;52.012;4.736;2023-04-25T12:52:41;13.52;47.85
78490;DHT22;67776;52.012;4.736;2023-04-25T12:55:06;15.56;43.73
78490;DHT22;67776;52.012;4.736;2023-04-25T12:57:32;17.08;40.09
78490;DHT22;67776;52.012;4.736;2023-04-25T12:59:57;17.43;39.97
78490;DHT22;67776;52.012;4.736;2023-04-25T13:02:22;17.23;39.89
78490;DHT22;67776;52.012;4.736;2023-04-25T13:04:48;17.91;36.49
78490;DHT22;67776;52.012;4.736;2023-04-25T13:07:13;18.20;37.15
78490;DHT22;67776;52.012;4.736;2023-04-25T13:09:38;18.66;36.62
78490;DHT22;67776;52.012;4.736;2023-04-25T13:12:04;18.61;37.44
78490;DHT22;67776;52.012;4.736;2023-04-25T13:14:30;17.28;38.22
78490;DHT22;67776;52.012;4.736;2023-04-25T13:16:55;16.76;39.98
78490;DHT22;67776;52.012;4.736;2023-04-25T13:19:21;16.81;41.05
78490;DHT22;67776;52.012;4.736;2023-04-25T13:21:46;17.89;37.43
78490;DHT22;67776;52.012;4.736;2023-04-25T13:24:12;18.80;37.63
78490;DHT22;67776;52.012;4.736;2023-04-25T13:26:37;18.76;37.37
78490;DHT22;67776;52.012;4.736;2023-04-25T13:29:02;18.52;36.65
78490;DHT22;67776;52.012;4.736;2023-04-25T13:31:29;16.03;42.45
78490;DHT22;67776;52.012;4.736;2023-04-25T13:33:55;15.07;47.01
78490;DHT22;67776;52.012;4.736;2023-04-25T13:36:24;14.43;50.08
78490;DHT22;67776;52.012;4.736;2023-04-25T13:38:49;13.86;53.54
78490;DHT22;67776;52.012;4.736;2023-04-25T13:41:14;13.19;54.79
78490;DHT22;67776;52.012;4.736;2023-04-25T13:43:44;12.61;54.98
78490;DHT22;67776;52.012;4.736;2023-04-25T13:46:10;13.00;55.45
78490;DHT22;67776;52.012;4.736;2023-04-25T13:48:36;12.70;55.47
78490;DHT22;67776;52.012;4.736;2023-04-25T13:51:02;14.26;52.80
78490;DHT22;67776;52.012;4.736;2023-04-25T13:53:27;15.22;48.08
78490;DHT22;67776;52.012;4.736;2023-04-25T13:55:52;15.30;47.27
78490;DHT22;67776;52.012;4.736;2023-04-25T13:58:18;14.14;49.85
78490;DHT22;67776;52.012;4.736;2023-04-25T14:00:45;14.15;49.54
78490;DHT22;67776;52.012;4.736;2023-04-25T14:03:12;13.86;49.27
78490;DHT22;67776;52.012;4.736;2023-04-25T14:05:37;13.67;48.17
78490;DHT22;67776;52.012;4.736;2023-04-25T14:08:04;14.15;51.03
78490;DHT22;67776;52.012;4.736;2023-04-25T14:10:30;14.63;48.77
78490;DHT22;67776;52.012;4.736;2023-04-25T14:12:55;14.24;47.92
78490;DHT22;67776;52.012;4.736;2023-04-25T14:15:20;14.58;46.70
78490;DHT22;67776;52.012;4.736;2023-04-25T14:17:46;15.87;43.21
78490;DHT22;67776;52.012;4.736;2023-04-25T14:20:13;15.38;44.09
78490;DHT22;67776;52.012;4.736;2023-04-25T14:22:38;13.78;44.17
78490;DHT22;67776;52.012;4.736;2023-04-25T14:25:08;13.58;46.44
78490;DHT22;67776;52.012;4.736;2023-04-25T14:27:34;14.88;43.92
78490;DHT22;67776;52.012;4.736;2023-04-25T14:29:59;14.14;44.52
78490;DHT22;67776;52.012;4.736;2023-04-25T14:32:24;13.36;46.87
78490;DHT22;67776;52.012;4.736;2023-04-25T14:34:50;13.16;48.20
78490;DHT22;67776;52.012;4.736;2023-04-25T14:37:15;13.71;44.94
78490;DHT22;67776;52.012;4.736;2023-04-25T14:39:41;13.77;42.98
78490;DHT22;67776;52.012;4.736;2023-04-25T14:42:06;14.98;43.81
78490;DHT22;67776;52.012;4.736;2023-04-25T14:44:31;15.45;41.49
78490;DHT22;67776;52.012;4.736;2023-04-25T14:46:57;15.86;42.37
78490;DHT22;67776;52.012;4.736;2023-04-25T14:49:22;15.20;42.28
78490;DHT22;67776;52.012;4.736;2023-04-25T14:51:47;14.28;40.64
78490;DHT22;67776;52.012;4.736;2023-04-25T14:54:13;15.07;40.12
78490;DHT22;67776;52.012;4.736;2023-04-25T14:56:44;14.05;43.60
78490;DHT22;67776;52.012;4.736;2023-04-25T14:59:09;14.10;44.56
78490;DHT22;67776;52.012;4.736;2023-04-25T15:01:35;14.41;47.31
78490;DHT22;67776;52.012;4.736;2023-04-25T15:04:00;14.56;46.29
78490;DHT22;67776;52.012;4.736;2023-04-25T15:06:25;14.35;44.91
78490;DHT22;67776;52.012;4.736;2023-04-25T15:08:53;15.63;43.65
78490;DHT22;67776;52.012;4.736;2023-04-25T15:11:19;16.59;41.10
78490;DHT22;67776;52.012;4.736;2023-04-25T15:13:45;16.70;39.09
78490;DHT22;67776;52.012;4.736;2023-04-25T15:16:10;15.89;38.01
78490;DHT22;67776;52.012;4.736;2023-04-25T15:18:36;15.38;41.03
78490;DHT22;67776;52.012;4.736;2023-04-25T15:21:02;15.65;41.14
78490;DHT22;67776;52.012;4.736;2023-04-25T15:23:27;15.12;44.75
78490;DHT22;67776;52.012;4.736;2023-04-25T15:25:52;13.98;46.56
78490;DHT22;67776;52.012;4.736;2023-04-25T15:28:18;14.00;47.11
78490;DHT22;67776;52.012;4.736;2023-04-25T15:30:46;14.41;45.91
78490;DHT22;67776;52.012;4.736;2023-04-25T15:33:11;15.24;44.12
78490;DHT22;67776;52.012;4.736;2023-04-25T15:35:37;15.07;44.41
78490;DHT22;67776;52.012;4.736;2023-04-25T15:38:02;15.08;45.06
78490;DHT22;67776;52.012;4.736;2023-04-25T15:40:27;15.05;45.74
78490;DHT22;67776;52.012;4.736;2023-04-25T15:42:53;14.59;46.35
78490;DHT22;67776;52.012;4.736;2023-04-25T15:45:21;15.20;43.78